Opa-locka Executive Airport
KOPF : now visible

Airfield :











YOU CAN JOIN US ON...

 
LOGIN :

Register | Disclaimer

   EN    FR    IT 

 









Legend :    VFR   Marginal VFR   IFR   Intensive IFR   Very Intensive IFR
Visi :
Ceiling :
>= 8 km
>= 3000ft
5 to 8 km
1000 to 3000 ft
1500m to 5 km
500 to 1000 ft
800 to 1500m
200 to 500 ft
< 800m
< 200 ft
Symbols :   Thunderstorms  Fog  Heavy snow  Heavy precipitations  Wind > 20 kt







- Airport Elevation : 8 ft


KOPF - Opa-locka Executive

CURRENT METAR :
  • 220053Z 06019G25KT 10SM FEW026 BKN037 OVC048 28/22 A3003 RMK AO2 PK WND 05027/0042 SLP171 T02780222 $

EXPIRED METARs :
  • 212353Z 05016G23KT 10SM SCT027 BKN032 OVC050 28/22 A3002 RMK AO2 PK WND 06028/2337 SLP167 60000 T02780222 10300 20278 50003 $
  • 212311Z 05016G24KT 10SM SCT029 OVC035 28/22 A3003 RMK AO2 T02780222 $
  • 212253Z 05017G23KT 10SM BKN028 OVC037 28/22 A3003 RMK AO2 PK WND 06027/2233 SLP169 T02780222 $

TAF KOPF
Valid from the 22 at 00:00 until the 23 at 00:00 UTC


212341Z 2200/2224 06015G25KT P6SM VCSH SCT029 BKN035
FM221300 07015G25KT P6SM SCT025 BKN050
No reported NOTAMs for that airfield.



MET'MAP, your aeronautical weather chart ! - Copyright ORBIFLY December 2007 - Disclaimer

ORBIFLY MET'MAP TEAM :

Programming & Development : Alexandra Zaïnal
Concept & Development : Baudouin d'Aumeries
Co-Development & Prog : Marc-Olivier Méhu
Technical & hardware support : Manuel Goepfert

Contact : metmap@orbifly.com




SOURCES & CREDITS :

   NOAA       Earth
Advisory